Time;durP1;ratioP1;P1;durP2;ratioP2;P2;SDS_P1;SDS_P2;PMS_P1;PMS_P2;Temp;Humidity;BMP_temperature;BMP_pressure;BME280_temperature;BME280_humidity;BME280_pressure;Samples;Min_cycle;Max_cycle;Signal;HPM_P1;HPM_P2
2020/12/27 00:00:31;;;;;;;14.25;6.40;;;;;;;1.75;100.00;101731.92;1747503;82;21068;-53
2020/12/27 00:02:58;;;;;;;11.80;6.17;;;;;;;1.75;100.00;101742.51;1725620;83;21360;-53
2020/12/27 00:05:26;;;;;;;11.68;6.42;;;;;;;1.75;100.00;101738.54;1747420;82;21135;-53
2020/12/27 00:07:53;;;;;;;10.53;5.78;;;;;;;1.75;100.00;101734.58;1725653;83;21103;-53
2020/12/27 00:10:21;;;;;;;10.38;5.62;;;;;;;1.73;100.00;101732.34;1747467;82;21075;-53
2020/12/27 00:12:49;;;;;;;9.35;5.10;;;;;;;1.76;100.00;101743.84;1725666;83;21047;-53
2020/12/27 00:15:16;;;;;;;7.72;4.58;;;;;;;1.75;100.00;101745.16;1747460;82;21385;-53
2020/12/27 00:17:45;;;;;;;9.45;4.70;;;;;;;1.74;100.00;101746.02;1747327;81;21198;-53
2020/12/27 00:20:12;;;;;;;7.55;4.47;;;;;;;1.73;100.00;101741.59;1747472;82;21071;-52
2020/12/27 00:22:40;;;;;;;7.67;4.12;;;;;;;1.78;100.00;101737.27;1747375;82;21059;-53
2020/12/27 00:25:07;;;;;;;9.83;4.35;;;;;;;1.80;100.00;101734.22;1725724;83;21134;-54
2020/12/27 00:27:35;;;;;;;6.70;4.12;;;;;;;1.83;100.00;101740.88;1747443;82;21464;-53
2020/12/27 00:30:04;;;;;;;9.20;4.47;;;;;;;1.83;100.00;101743.52;1725577;83;21067;-53
2020/12/27 00:32:31;;;;;;;10.23;4.87;;;;;;;1.83;100.00;101746.16;1747448;82;21067;-53
2020/12/27 00:34:59;;;;;;;9.88;4.87;;;;;;;1.84;100.00;101742.66;1725566;83;21081;-53
2020/12/27 00:37:32;;;;;;;11.45;4.92;;;;;;;1.87;100.00;101747.98;1738663;82;21124;-53
2020/12/27 00:40:00;;;;;;;8.63;4.40;;;;;;;1.92;100.00;101759.98;1731832;82;21207;-54
2020/12/27 00:42:27;;;;;;;7.83;4.30;;;;;;;1.94;100.00;101763.13;1731854;82;21136;-54
2020/12/27 00:44:57;;;;;;;10.08;4.58;;;;;;;1.95;100.00;101762.25;1713479;82;21144;-54
2020/12/27 00:47:24;;;;;;;10.58;4.70;;;;;;;1.95;100.00;101759.61;1731874;82;21159;-53
2020/12/27 00:49:52;;;;;;;10.15;4.83;;;;;;;1.97;100.00;101765.81;1731891;82;21077;-53
2020/12/27 00:52:20;;;;;;;10.10;5.15;;;;;;;1.98;100.00;101769.33;1731831;82;21372;-53
2020/12/27 00:54:48;;;;;;;11.05;5.30;;;;;;;2.02;100.00;101775.58;1731687;82;21127;-53
2020/12/27 00:57:16;;;;;;;13.00;5.92;;;;;;;2.04;100.00;101766.81;1730261;83;21155;-53
2020/12/27 00:59:44;;;;;;;10.38;5.55;;;;;;;2.06;100.00;101756.23;1730298;83;21195;-53
2020/12/27 01:02:13;;;;;;;14.63;5.28;;;;;;;2.06;100.00;101758.89;1701185;83;21136;-52
2020/12/27 01:04:47;;;;;;;16.77;5.95;;;;;;;2.04;100.00;101759.30;1730323;83;21390;-53
2020/12/27 01:07:16;;;;;;;25.12;5.60;;;;;;;2.03;100.00;101761.48;1730209;83;21187;-52
2020/12/27 01:09:46;;;;;;;14.80;5.28;;;;;;;2.04;100.00;101755.33;1730135;83;21183;-53
2020/12/27 01:12:15;;;;;;;10.15;4.65;;;;;;;2.06;100.00;101761.11;1730231;83;21156;-54
2020/12/27 01:14:43;;;;;;;13.22;5.72;;;;;;;2.09;100.00;101761.58;1730263;83;21097;-53
2020/12/27 01:17:12;;;;;;;15.50;5.65;;;;;;;2.11;100.00;101761.20;1729666;83;21638;-54
2020/12/27 01:19:40;;;;;;;11.03;5.60;;;;;;;2.14;100.00;101757.27;1730265;83;21072;-53
2020/12/27 01:22:08;;;;;;;11.90;5.37;;;;;;;2.13;100.00;101748.87;1730208;83;21152;-53
2020/12/27 01:24:37;;;;;;;15.35;6.62;;;;;;;2.11;100.00;101751.94;1727825;83;21156;-53
2020/12/27 01:27:05;;;;;;;12.13;5.65;;;;;;;2.11;100.00;101751.94;1730335;83;21107;-52
2020/12/27 01:29:33;;;;;;;12.37;5.17;;;;;;;2.11;100.00;101746.20;1730240;83;21395;-53
2020/12/27 01:32:02;;;;;;;15.18;5.80;;;;;;;2.10;100.00;101750.12;1729794;83;21119;-53
2020/12/27 01:34:32;;;;;;;12.25;6.05;;;;;;;2.08;100.00;101759.80;1729057;83;21108;-54
2020/12/27 01:36:59;;;;;;;15.85;6.65;;;;;;;2.10;100.00;101757.65;1725021;83;22292;-52
2020/12/27 01:39:27;;;;;;;11.75;6.67;;;;;;;2.11;100.00;101763.84;1695062;84;21198;-54
2020/12/27 01:41:54;;;;;;;17.17;7.00;;;;;;;2.10;100.00;101756.32;1716181;83;21568;-53
2020/12/27 01:44:24;;;;;;;14.10;7.47;;;;;;;2.11;100.00;101758.10;1694939;84;21182;-53
2020/12/27 01:46:53;;;;;;;16.00;7.33;;;;;;;2.11;100.00;101763.84;1716056;83;21115;-53
2020/12/27 01:49:25;;;;;;;21.30;7.95;;;;;;;2.06;100.00;101759.79;1694614;84;21154;-53
2020/12/27 01:51:53;;;;;;;13.78;7.35;;;;;;;2.06;100.00;101761.53;1716059;83;21063;-53
2020/12/27 01:54:23;;;;;;;11.48;6.60;;;;;;;2.06;100.00;101761.53;1693987;84;21633;-53
2020/12/27 01:57:14;;;;;;;12.98;7.00;;;;;;;2.10;100.00;101759.39;1737316;82;21095;-53
2020/12/27 01:59:43;;;;;;;12.00;6.12;;;;;;;2.12;100.00;101755.91;1738241;82;21526;-53
2020/12/27 02:02:13;;;;;;;12.70;5.67;;;;;;;2.14;100.00;101758.15;1715315;83;21463;-53
2020/12/27 02:05:01;;;;;;;8.83;5.53;;;;;;;2.12;100.00;101759.01;1739214;82;21179;-53
2020/12/27 02:07:29;;;;;;;14.00;6.00;;;;;;;2.10;100.00;101764.68;1739978;81;21420;-53
2020/12/27 02:09:59;;;;;;;9.80;5.90;;;;;;;2.08;100.00;101758.47;1738300;82;21183;-54
2020/12/27 02:12:27;;;;;;;13.68;5.42;;;;;;;2.07;100.00;101757.59;1718326;83;21135;-53
2020/12/27 02:14:54;;;;;;;13.88;6.58;;;;;;;2.08;100.00;101756.73;1739877;82;21159;-53
2020/12/27 02:17:24;;;;;;;18.15;8.60;;;;;;;2.08;100.00;101759.80;1717727;83;21170;-53
2020/12/27 02:20:09;;;;;;;22.17;9.38;;;;;;;2.10;100.00;101756.74;1738364;82;21223;-53
2020/12/27 02:22:44;;;;;;;29.40;12.80;;;;;;;2.09;100.00;101760.25;1717653;83;21182;-53
2020/12/27 02:25:26;;;;;;;19.95;11.22;;;;;;;2.10;100.00;101764.68;1739071;82;21194;-53
2020/12/27 02:27:55;;;;;;;22.60;10.08;;;;;;;2.09;100.00;101753.64;1717336;83;21146;-53
2020/12/27 02:30:23;;;;;;;16.65;8.78;;;;;;;2.10;100.00;101764.26;1739889;82;21072;-53
2020/12/27 02:32:51;;;;;;;16.10;8.43;;;;;;;2.13;100.00;101767.41;1718358;83;21437;-53
2020/12/27 02:35:18;;;;;;;14.38;7.00;;;;;;;2.14;100.00;101757.27;1739875;82;21123;-51
2020/12/27 02:37:50;;;;;;;13.85;7.35;;;;;;;2.17;100.00;101753.77;1739896;82;21159;-53
2020/12/27 02:40:17;;;;;;;18.15;9.08;;;;;;;2.18;100.00;101763.06;1780099;80;21115;-53
2020/12/27 02:42:53;;;;;;;24.43;10.53;;;;;;;2.19;100.00;101763.52;1766745;80;21112;-52
2020/12/27 02:45:21;;;;;;;21.42;10.78;;;;;;;2.19;100.00;101771.47;1780090;80;21368;-53
2020/12/27 02:48:08;;;;;;;18.57;9.45;;;;;;;2.20;100.00;101781.18;1780012;80;21590;-53
2020/12/27 02:50:43;;;;;;;18.92;8.85;;;;;;;2.21;100.00;101776.77;1778948;80;21068;-53
2020/12/27 02:53:11;;;;;;;16.10;8.68;;;;;;;2.24;100.00;101776.84;1780083;80;21061;-53
2020/12/27 02:55:39;;;;;;;16.20;8.68;;;;;;;2.23;100.00;101770.64;1780029;80;21048;-53
2020/12/27 02:58:06;;;;;;;19.95;7.47;;;;;;;2.25;100.00;101774.20;1781539;80;21388;-53
2020/12/27 03:00:35;;;;;;;22.98;7.53;;;;;;;2.25;100.00;101771.55;1788291;80;21202;-53
2020/12/27 03:03:21;;;;;;;25.40;7.67;;;;;;;2.26;100.00;101783.05;1788483;80;21056;-53
2020/12/27 03:05:51;;;;;;;18.98;7.40;;;;;;;2.24;100.00;101783.00;1787420;80;21083;-53
2020/12/27 03:08:19;;;;;;;23.47;8.33;;;;;;;2.25;100.00;101783.46;1788425;80;21089;-53
2020/12/27 03:10:57;;;;;;;24.80;7.90;;;;;;;2.25;100.00;101786.11;1761698;80;22736;-53
2020/12/27 03:13:27;;;;;;;18.73;8.10;;;;;;;2.25;100.00;101782.14;1788324;80;21111;-53
2020/12/27 03:15:55;;;;;;;17.90;7.42;;;;;;;2.26;100.00;101786.56;1788354;80;21135;-53
2020/12/27 03:18:38;;;;;;;16.52;7.60;;;;;;;2.23;100.00;101789.16;1736664;80;20965;-53
2020/12/27 03:21:14;;;;;;;27.17;7.72;;;;;;;2.21;100.00;101785.61;1775368;80;21147;-53
2020/12/27 03:23:42;;;;;;;17.02;8.18;;;;;;;2.21;100.00;101792.22;1788381;80;21380;-53
2020/12/27 03:26:11;;;;;;;28.92;8.70;;;;;;;2.22;100.00;101800.61;1787205;80;21075;-53
2020/12/27 03:28:39;;;;;;;17.42;7.15;;;;;;;2.21;99.89;101797.52;1788412;80;21467;-53
2020/12/27 03:31:07;;;;;;;31.75;8.13;;;;;;;2.20;98.95;101811.61;1788434;80;21187;-53
2020/12/27 03:33:36;;;;;;;17.62;6.92;;;;;;;2.21;98.50;101811.16;1788299;80;21127;-54
2020/12/27 03:36:06;;;;;;;24.52;6.42;;;;;;;2.20;98.19;101807.64;1787461;80;21576;-53
2020/12/27 03:38:35;;;;;;;16.77;7.03;;;;;;;2.20;97.82;101810.29;1724538;82;21162;-54
2020/12/27 03:41:04;;;;;;;20.43;7.53;;;;;;;2.22;97.77;101809.87;1746116;82;21182;-52
2020/12/27 03:43:43;;;;;;;13.53;6.10;;;;;;;2.21;96.91;101814.72;1724888;82;21177;-53
2020/12/27 03:46:12;;;;;;;9.13;5.47;;;;;;;2.18;96.60;101812.02;1747303;82;21134;-53
2020/12/27 03:48:44;;;;;;;10.65;6.25;;;;;;;2.18;96.18;101825.67;1724605;82;21375;-53
2020/12/27 03:51:29;;;;;;;11.18;6.97;;;;;;;2.16;95.72;101819.05;1745861;82;21096;-53
2020/12/27 03:53:57;;;;;;;14.43;6.95;;;;;;;2.13;95.36;101813.26;1725524;82;21158;-53
2020/12/27 03:56:26;;;;;;;15.28;6.15;;;;;;;2.11;95.00;101824.70;1709975;82;21158;-53
2020/12/27 03:59:05;;;;;;;13.95;5.95;;;;;;;2.09;94.37;101825.08;1721853;82;21605;-53
2020/12/27 04:01:43;;;;;;;10.63;6.00;;;;;;;2.04;93.71;101817.08;1737738;82;21406;-53
2020/12/27 04:04:11;;;;;;;19.10;6.53;;;;;;;1.99;93.56;101813.02;1739135;82;21096;-53
2020/12/27 04:06:39;;;;;;;13.85;6.53;;;;;;;1.97;93.63;101824.42;1717980;82;21087;-54
2020/12/27 04:09:08;;;;;;;12.80;6.72;;;;;;;1.94;93.70;101833.22;1737557;82;21143;-53
2020/12/27 04:11:36;;;;;;;9.98;5.90;;;;;;;1.92;93.62;101832.72;1739319;82;21142;-53
2020/12/27 04:14:05;;;;;;;14.98;6.25;;;;;;;1.90;93.56;101832.70;1717865;82;21371;-54
2020/12/27 04:16:34;;;;;;;12.45;6.20;;;;;;;1.88;93.21;101835.77;1739161;82;21096;-54
2020/12/27 04:19:03;;;;;;;13.20;6.25;;;;;;;1.85;93.19;101849.80;1739216;82;21068;-54
2020/12/27 04:21:32;;;;;;;23.77;6.47;;;;;;;1.84;93.01;101859.92;1738768;82;21151;-53
2020/12/27 04:24:02;;;;;;;17.90;6.75;;;;;;;1.81;92.70;101858.97;1717331;83;21155;-53
2020/12/27 04:26:31;;;;;;;15.75;6.33;;;;;;;1.80;92.64;101846.61;1739236;82;21386;-53
2020/12/27 04:29:00;;;;;;;14.20;6.40;;;;;;;1.78;92.54;101845.69;1717860;83;21299;-53
2020/12/27 04:31:28;;;;;;;16.30;7.17;;;;;;;1.74;92.55;101838.56;1739240;82;21153;-53
2020/12/27 04:33:58;;;;;;;10.53;5.65;;;;;;;1.71;92.50;101850.87;1717256;83;21185;-54
2020/12/27 04:36:27;;;;;;;13.32;5.83;;;;;;;1.69;92.56;101851.69;1743521;80;21126;-54
2020/12/27 04:38:55;;;;;;;19.95;6.50;;;;;;;1.64;92.50;101856.87;1775293;80;21243;-53
2020/12/27 04:41:24;;;;;;;16.90;6.55;;;;;;;1.62;92.45;101857.73;1775127;80;21057;-53
2020/12/27 04:43:55;;;;;;;11.70;6.12;;;;;;;1.62;92.54;101865.66;1745621;80;21087;-54
2020/12/27 04:46:22;;;;;;;12.80;6.62;;;;;;;1.60;92.57;101872.22;1775141;80;21236;-54
2020/12/27 04:48:53;;;;;;;23.12;6.87;;;;;;;1.60;92.52;101884.13;1773757;80;21112;-54
2020/12/27 04:51:22;;;;;;;17.57;6.33;;;;;;;1.60;92.53;101898.66;1774675;80;21382;-54
2020/12/27 04:53:52;;;;;;;12.53;6.70;;;;;;;1.62;92.52;101885.48;1772372;80;21079;-54
2020/12/27 04:56:25;;;;;;;19.48;6.95;;;;;;;1.63;92.46;101898.72;1774393;80;21087;-53
2020/12/27 04:58:57;;;;;;;16.70;6.37;;;;;;;1.66;92.36;101909.39;1744284;80;21055;-54
2020/12/27 05:01:26;;;;;;;15.32;6.47;;;;;;;1.68;92.17;101916.01;1781053;80;21107;-53
2020/12/27 05:03:56;;;;;;;12.03;5.60;;;;;;;1.69;91.80;101925.31;1780939;80;21609;-54
2020/12/27 05:06:26;;;;;;;13.60;6.50;;;;;;;1.69;91.58;101908.13;1780699;80;21185;-54
2020/12/27 05:08:54;;;;;;;11.55;6.15;;;;;;;1.71;91.42;101910.36;1780948;80;21051;-54
2020/12/27 05:11:23;;;;;;;15.85;5.60;;;;;;;1.75;91.16;101907.78;1728928;80;21066;-53
2020/12/27 05:13:53;;;;;;;10.78;6.15;;;;;;;1.78;90.83;101915.77;1749582;82;21084;-53
2020/12/27 05:16:25;;;;;;;14.35;6.45;;;;;;;1.79;90.61;101914.91;1750002;81;21395;-53
2020/12/27 05:18:53;;;;;;;21.48;6.80;;;;;;;1.81;90.42;101917.14;1702316;81;21558;-54
2020/12/27 05:21:23;;;;;;;12.13;5.75;;;;;;;1.83;90.47;101919.39;1780596;80;21123;-53
2020/12/27 05:23:52;;;;;;;13.48;6.37;;;;;;;1.86;90.34;101916.80;1781038;80;21562;-54
2020/12/27 05:26:28;;;;;;;12.00;6.80;;;;;;;1.87;90.23;101906.68;1780452;80;21083;-54
2020/12/27 05:28:57;;;;;;;11.75;6.03;;;;;;;1.88;90.26;101911.14;1743616;80;22264;-53
2020/12/27 05:31:38;;;;;;;12.68;6.12;;;;;;;1.89;90.00;101910.28;1760955;80;21154;-55
2020/12/27 05:34:09;;;;;;;12.45;6.75;;;;;;;1.90;89.81;101916.44;1762254;80;21098;-53
2020/12/27 05:36:41;;;;;;;13.48;6.97;;;;;;;1.89;89.72;101928.80;1737086;79;21067;-54
2020/12/27 05:39:29;;;;;;;12.98;6.35;;;;;;;1.89;89.45;101930.11;1756347;81;21133;-54
2020/12/27 05:42:05;;;;;;;12.95;7.08;;;;;;;1.89;89.31;101927.89;1805741;79;21554;-54
2020/12/27 05:44:36;;;;;;;13.67;6.40;;;;;;;1.90;89.06;101937.60;1808290;79;21910;-54
2020/12/27 05:47:04;;;;;;;12.23;6.72;;;;;;;1.88;88.80;101928.33;1808253;79;21633;-53
2020/12/27 05:49:33;;;;;;;13.15;6.25;;;;;;;1.90;88.90;101931.89;1760372;81;21090;-54
2020/12/27 05:52:03;;;;;;;13.03;6.30;;;;;;;1.90;88.81;101935.86;1807550;79;21083;-54
2020/12/27 05:54:36;;;;;;;14.20;6.72;;;;;;;1.89;88.66;101922.18;1760449;81;21390;-54
2020/12/27 05:57:05;;;;;;;12.43;5.92;;;;;;;1.89;88.80;101922.18;1807258;79;21147;-54
2020/12/27 05:59:36;;;;;;;13.95;6.30;;;;;;;1.92;88.50;101944.72;1808066;79;21176;-54
2020/12/27 06:02:08;;;;;;;11.38;6.25;;;;;;;1.90;88.52;101939.84;1759214;81;21150;-55
2020/12/27 06:05:13;;;;;;;10.60;6.15;;;;;;;1.90;88.46;101942.89;1756411;79;21136;-54
2020/12/27 06:07:45;;;;;;;11.30;6.28;;;;;;;1.89;88.58;101952.59;1760405;81;21199;-54
2020/12/27 06:10:16;;;;;;;9.90;5.87;;;;;;;1.91;88.65;101961.45;1807805;79;21197;-54
2020/12/27 06:13:10;;;;;;;12.00;5.62;;;;;;;1.92;88.54;101987.05;1807582;79;21178;-54
2020/12/27 06:15:51;;;;;;;11.65;6.12;;;;;;;1.93;88.50;101994.12;1807984;79;21111;-54
2020/12/27 06:18:29;;;;;;;11.40;6.20;;;;;;;1.95;88.62;102004.30;1731553;81;21179;-54
2020/12/27 06:21:10;;;;;;;13.90;6.30;;;;;;;1.97;88.67;102001.25;1806791;79;21277;-54
2020/12/27 06:23:39;;;;;;;;;;;;;;;2.01;88.66;102014.13;1758753;81;21209;-55
2020/12/27 06:26:08;;;;;;;12.80;6.30;;;;;;;2.04;88.68;102004.92;1808057;79;20133;-54
2020/12/27 06:28:38;;;;;;;15.20;6.35;;;;;;;2.06;88.60;102004.52;1808136;79;21139;-54
2020/12/27 06:31:13;;;;;;;13.90;6.22;;;;;;;2.11;88.61;102006.82;1759201;81;21082;-54
2020/12/27 06:33:43;;;;;;;10.80;6.35;;;;;;;2.15;88.42;102015.73;1805768;79;21373;-55
2020/12/27 06:36:32;;;;;;;12.65;6.35;;;;;;;2.18;88.11;102019.75;1758303;81;21098;-54
2020/12/27 06:39:26;;;;;;;11.95;6.58;;;;;;;2.18;87.99;102025.46;1788310;80;21102;-53
2020/12/27 06:42:14;;;;;;;14.33;6.85;;;;;;;2.20;87.96;102014.05;1790189;80;21165;-53
2020/12/27 06:44:55;;;;;;;11.22;6.00;;;;;;;2.21;87.84;102003.93;1790918;80;21173;-55
2020/12/27 06:47:50;;;;;;;13.50;6.92;;;;;;;2.24;87.90;102013.25;1791750;80;21367;-54
2020/12/27 06:50:26;;;;;;;13.13;7.28;;;;;;;2.27;87.90;102001.84;1790814;80;21133;-54
2020/12/27 06:52:55;;;;;;;13.03;6.87;;;;;;;2.29;88.05;102001.44;1790271;80;21177;-54
2020/12/27 06:55:38;;;;;;;12.70;6.65;;;;;;;2.31;87.83;102010.72;1761920;80;21136;-54
2020/12/27 06:58:18;;;;;;;12.23;6.12;;;;;;;2.29;87.85;102018.20;1787495;80;21044;-54
2020/12/27 07:00:48;;;;;;;10.45;6.17;;;;;;;2.29;88.11;101998.80;1788420;80;21196;-54
2020/12/27 07:03:22;;;;;;;14.95;7.08;;;;;;;2.29;88.34;102008.06;1786249;80;21188;-54
2020/12/27 07:05:50;;;;;;;12.85;6.72;;;;;;;2.32;88.43;101997.94;1788333;80;21139;-54
2020/12/27 07:08:40;;;;;;;13.10;7.12;;;;;;;2.34;88.51;102000.22;1788404;80;21108;-54
2020/12/27 07:11:08;;;;;;;15.58;6.12;;;;;;;2.35;88.50;102008.61;1788337;80;21127;-54
2020/12/27 07:13:45;;;;;;;12.23;6.47;;;;;;;2.36;88.61;102007.75;1788411;80;21509;-54
2020/12/27 07:16:16;;;;;;;13.03;7.42;;;;;;;2.39;88.64;102021.05;1788279;80;21167;-54
2020/12/27 07:18:47;;;;;;;14.97;7.43;;;;;;;2.39;88.68;102013.10;1788685;80;21103;-54
2020/12/27 07:21:19;;;;;;;14.80;7.15;;;;;;;2.41;88.82;102016.66;1788320;80;21175;-54
2020/12/27 07:24:12;;;;;;;14.25;7.45;;;;;;;2.43;88.85;102017.58;1788406;80;21148;-53
2020/12/27 07:26:44;;;;;;;14.05;7.30;;;;;;;2.49;88.93;102034.03;1788407;80;21335;-54
2020/12/27 07:29:15;;;;;;;14.25;7.83;;;;;;;2.54;88.71;102025.73;1788334;80;21072;-54
2020/12/27 07:31:42;;;;;;;14.40;7.50;;;;;;;2.56;88.50;102027.97;1758475;80;21511;-54
2020/12/27 07:34:13;;;;;;;15.45;8.45;;;;;;;2.58;88.62;102032.86;1729828;80;21080;-55
2020/12/27 07:36:41;;;;;;;16.67;7.97;;;;;;;2.58;88.50;102027.15;1773183;80;21074;-54
2020/12/27 07:39:10;;;;;;;14.25;7.53;;;;;;;2.62;88.42;102039.12;1754148;81;22320;-54
2020/12/27 07:41:41;;;;;;;12.68;6.87;;;;;;;2.63;88.25;102045.75;1747440;82;21126;-54
2020/12/27 07:44:11;;;;;;;17.17;7.15;;;;;;;2.65;88.29;102041.82;1747342;82;21146;-54
2020/12/27 07:46:39;;;;;;;13.18;6.83;;;;;;;2.68;88.49;102049.41;1747425;82;21166;-53
2020/12/27 07:49:12;;;;;;;10.68;6.65;;;;;;;2.71;88.55;102062.70;1725667;83;21123;-54
2020/12/27 07:51:39;;;;;;;11.55;6.95;;;;;;;2.74;88.24;102047.73;1746961;82;21211;-53
2020/12/27 07:54:07;;;;;;;18.12;6.22;;;;;;;2.76;88.33;102065.86;1725690;82;21122;-54
2020/12/27 07:56:34;;;;;;;12.85;6.40;;;;;;;2.79;88.02;102080.06;1718150;82;21091;-54
2020/12/27 07:59:03;;;;;;;10.78;5.78;;;;;;;2.80;87.69;102062.39;1725590;83;21145;-54
2020/12/27 08:01:34;;;;;;;12.80;5.58;;;;;;;2.82;87.74;102064.64;1745640;82;21098;-54
2020/12/27 08:04:04;;;;;;;11.05;5.80;;;;;;;2.85;87.71;102068.25;1723353;83;21384;-53
2020/12/27 08:06:35;;;;;;;10.45;6.08;;;;;;;2.90;87.52;102072.73;1739299;82;21527;-55
2020/12/27 08:09:05;;;;;;;12.33;6.30;;;;;;;2.93;87.19;102075.44;1723341;82;21117;-53
2020/12/27 08:11:36;;;;;;;12.00;6.05;;;;;;;2.95;86.60;102082.56;1739219;82;21136;-53
2020/12/27 08:14:05;;;;;;;14.80;6.62;;;;;;;2.98;86.83;102073.75;1723357;83;21082;-53
2020/12/27 08:16:33;;;;;;;12.25;6.08;;;;;;;3.01;86.52;102087.08;1739231;82;21168;-53
2020/12/27 08:19:15;;;;;;;11.68;6.25;;;;;;;3.05;86.52;102070.78;1723249;83;21082;-53
2020/12/27 08:21:44;;;;;;;12.40;6.67;;;;;;;3.09;86.56;102070.87;1739276;82;21072;-53
2020/12/27 08:24:14;;;;;;;15.72;6.65;;;;;;;3.16;86.59;102066.58;1722129;83;21078;-54
2020/12/27 08:26:44;;;;;;;16.17;6.45;;;;;;;3.20;85.97;102069.73;1739270;82;21068;-54
2020/12/27 08:29:23;;;;;;;13.40;7.30;;;;;;;3.23;85.75;102066.25;1723296;83;21272;-54
2020/12/27 08:31:54;;;;;;;13.55;6.80;;;;;;;3.27;86.12;102079.56;1739292;82;21144;-54
2020/12/27 08:34:25;;;;;;;11.68;6.62;;;;;;;3.30;85.56;102076.08;1721670;83;21101;-53
2020/12/27 08:36:55;;;;;;;11.57;6.92;;;;;;;3.31;85.57;102072.56;1745378;81;21079;-56
2020/12/27 08:39:53;;;;;;;11.50;6.72;;;;;;;3.29;85.43;102069.00;1758410;81;21070;-53
2020/12/27 08:42:28;;;;;;;14.40;7.37;;;;;;;3.29;85.67;102082.25;1758353;81;21376;-54
2020/12/27 08:45:05;;;;;;;14.98;7.60;;;;;;;3.31;85.42;102087.14;1758238;81;21161;-54
2020/12/27 08:48:05;;;;;;;16.57;7.00;;;;;;;3.29;85.35;102072.97;1732865;82;21121;-54
2020/12/27 08:50:35;;;;;;;14.83;6.92;;;;;;;3.28;85.38;102072.06;1755768;81;21487;-54
2020/12/27 08:53:02;;;;;;;16.25;7.45;;;;;;;3.29;85.67;102082.25;1732905;82;21078;-54
2020/12/27 08:55:30;;;;;;;13.48;7.60;;;;;;;3.32;85.94;102062.41;1755593;81;21539;-54
2020/12/27 08:58:00;;;;;;;14.68;7.55;;;;;;;3.34;86.24;102053.17;1728502;82;21510;-55
2020/12/27 09:00:34;;;;;;;17.15;8.13;;;;;;;3.34;86.02;102046.09;1755602;81;21469;-55
2020/12/27 09:03:04;;;;;;;18.35;8.03;;;;;;;3.36;86.15;102044.36;1733165;82;21074;-54
2020/12/27 09:05:34;;;;;;;13.98;8.05;;;;;;;3.38;85.86;102050.57;1755626;81;21048;-54
2020/12/27 09:08:17;;;;;;;15.93;7.65;;;;;;;3.38;85.92;102039.09;1732940;82;21387;-54
2020/12/27 09:10:45;;;;;;;17.62;7.58;;;;;;;3.38;85.53;102042.61;1755598;81;21158;-54
2020/12/27 09:13:15;;;;;;;14.07;7.50;;;;;;;3.38;85.46;102034.66;1732819;82;21078;-54
2020/12/27 09:15:47;;;;;;;10.95;6.33;;;;;;;3.37;85.71;102031.55;1755632;81;21118;-54
2020/12/27 09:18:16;;;;;;;14.60;7.33;;;;;;;3.38;85.91;102023.19;1733000;82;21511;-54
2020/12/27 09:20:45;;;;;;;13.22;7.50;;;;;;;3.38;85.88;102024.51;1755854;81;21206;-54
2020/12/27 09:23:16;;;;;;;13.13;7.65;;;;;;;3.38;86.15;102024.06;1732906;82;21190;-55
2020/12/27 09:25:44;;;;;;;11.45;6.10;;;;;;;3.40;86.44;102022.31;1755736;81;21118;-54
2020/12/27 09:28:19;;;;;;;14.47;7.42;;;;;;;3.42;86.60;102021.91;1732886;82;21498;-54
2020/12/27 09:31:00;;;;;;;10.53;5.97;;;;;;;3.46;86.38;102010.92;1755826;81;21583;-54
2020/12/27 09:33:29;;;;;;;17.95;8.85;;;;;;;3.50;86.51;102011.87;1732812;82;21214;-53
2020/12/27 09:36:00;;;;;;;12.33;7.20;;;;;;;3.52;86.93;101999.52;1755536;81;21158;-55
2020/12/27 09:38:31;;;;;;;16.20;7.55;;;;;;;3.58;87.38;102000.92;1754414;81;21160;-54
2020/12/27 09:41:09;;;;;;;17.90;8.30;;;;;;;3.64;87.60;102009.41;1772904;81;21140;-54
2020/12/27 09:43:50;;;;;;;14.75;7.53;;;;;;;3.69;87.56;102003.30;1765160;81;21151;-54
2020/12/27 09:46:49;;;;;;;13.95;7.62;;;;;;;3.73;87.73;101997.16;1769813;81;21466;-53
2020/12/27 09:49:34;;;;;;;12.95;7.60;;;;;;;3.81;87.75;101996.37;1769755;81;21587;-53
2020/12/27 09:52:07;;;;;;;16.02;8.33;;;;;;;3.90;87.89;101999.16;1769898;81;21083;-54
2020/12/27 09:54:36;;;;;;;12.15;7.45;;;;;;;3.94;87.59;101990.78;1769641;81;21203;-54
2020/12/27 09:57:15;;;;;;;13.28;6.80;;;;;;;3.93;87.66;102001.84;1769814;81;21067;-54
2020/12/27 09:59:43;;;;;;;13.48;7.58;;;;;;;3.94;87.60;101993.02;1769660;81;21121;-53
2020/12/27 10:02:11;;;;;;;12.90;7.47;;;;;;;3.95;87.56;101978.87;1769627;81;21080;-54
2020/12/27 10:04:39;;;;;;;12.98;7.78;;;;;;;4.01;87.63;101982.05;1769647;81;21155;-54
2020/12/27 10:07:06;;;;;;;19.23;8.13;;;;;;;4.05;87.02;101981.63;1769729;81;21151;-54
2020/12/27 10:09:34;;;;;;;17.10;7.92;;;;;;;4.07;87.05;101982.11;1769711;81;21062;-54
2020/12/27 10:12:02;;;;;;;13.38;7.72;;;;;;;4.11;86.91;101972.43;1769639;81;21392;-54
2020/12/27 10:14:30;;;;;;;14.18;7.78;;;;;;;4.18;86.96;101970.28;1769581;81;21091;-53
2020/12/27 10:17:00;;;;;;;13.83;7.28;;;;;;;4.26;86.83;101973.91;1769627;81;21135;-54
2020/12/27 10:19:28;;;;;;;12.55;7.33;;;;;;;4.36;86.32;101968.71;1769692;81;21209;-54
2020/12/27 10:21:56;;;;;;;15.25;8.05;;;;;;;4.43;86.09;101958.59;1769631;81;21158;-54
2020/12/27 10:24:26;;;;;;;13.13;7.95;;;;;;;4.46;85.54;101956.41;1769696;81;21437;-53
2020/12/27 10:26:53;;;;;;;16.97;8.18;;;;;;;4.48;85.60;101959.98;1769620;81;21077;-54
2020/12/27 10:29:20;;;;;;;15.53;7.65;;;;;;;4.54;85.73;101959.61;1769816;81;21551;-54
2020/12/27 10:31:58;;;;;;;14.15;7.75;;;;;;;4.59;85.06;101957.88;1769690;81;21222;-53
2020/12/27 10:34:26;;;;;;;14.18;7.42;;;;;;;4.62;84.70;101944.16;1769754;81;21194;-54
2020/12/27 10:36:56;;;;;;;13.53;7.75;;;;;;;4.66;84.55;101952.61;1767561;81;21394;-54
2020/12/27 10:39:24;;;;;;;13.15;7.28;;;;;;;4.62;84.24;101949.48;1757186;81;21075;-54
2020/12/27 10:41:52;;;;;;;14.98;7.33;;;;;;;4.57;84.23;101952.98;1802206;79;21476;-54
2020/12/27 10:44:23;;;;;;;16.55;8.18;;;;;;;4.53;84.08;101956.50;1757170;81;21071;-54
2020/12/27 10:46:52;;;;;;;18.02;8.43;;;;;;;4.51;84.04;101948.92;1802312;79;21669;-54
2020/12/27 10:49:22;;;;;;;13.22;8.05;;;;;;;4.48;84.19;101948.90;1802125;79;21352;-54
2020/12/27 10:51:50;;;;;;;14.85;7.20;;;;;;;4.46;84.33;101938.70;1757313;81;21578;-53
2020/12/27 10:54:18;;;;;;;14.15;7.37;;;;;;;4.45;84.55;101931.61;1802067;79;21115;-53
2020/12/27 10:56:46;;;;;;;14.00;7.90;;;;;;;4.42;84.67;101930.25;1757168;81;21161;-54
2020/12/27 10:59:14;;;;;;;14.58;8.23;;;;;;;4.40;84.84;101930.69;1802033;79;21063;-53
2020/12/27 11:01:47;;;;;;;14.75;7.83;;;;;;;4.40;84.96;101937.32;1802147;79;21533;-54
2020/12/27 11:04:15;;;;;;;15.75;8.50;;;;;;;4.39;85.16;101936.41;1757179;81;21098;-53
2020/12/27 11:06:43;;;;;;;14.53;7.65;;;;;;;4.40;85.22;101935.53;1802116;79;20916;-53
2020/12/27 11:09:11;;;;;;;13.45;7.70;;;;;;;4.40;85.25;101930.69;1802200;79;21048;-53
2020/12/27 11:11:40;;;;;;;13.65;7.40;;;;;;;4.38;85.25;101921.81;1757320;81;21130;-53
2020/12/27 11:14:08;;;;;;;16.25;7.42;;;;;;;4.35;85.40;101932.41;1757527;81;21550;-54
2020/12/27 11:16:35;;;;;;;17.00;8.13;;;;;;;4.29;85.70;101918.17;1802274;79;21730;-54
2020/12/27 11:19:03;;;;;;;21.27;8.20;;;;;;;4.29;86.01;101918.63;1757501;81;21186;-54
2020/12/27 11:21:30;;;;;;;13.20;7.40;;;;;;;4.29;86.15;101906.68;1802269;79;21441;-54
2020/12/27 11:23:58;;;;;;;13.85;7.70;;;;;;;4.28;86.57;101906.23;1802392;79;21228;-53
2020/12/27 11:26:25;;;;;;;17.00;8.10;;;;;;;4.28;86.81;101908.42;1802302;79;21450;-54
2020/12/27 11:28:52;;;;;;;14.85;7.95;;;;;;;4.30;87.10;101900.03;1757308;81;21130;-53
2020/12/27 11:31:20;;;;;;;15.40;8.60;;;;;;;4.30;87.23;101896.05;1802258;79;21127;-54
2020/12/27 11:33:48;;;;;;;16.30;7.97;;;;;;;4.31;87.25;101904.92;1757395;81;21102;-54
2020/12/27 11:36:16;;;;;;;14.98;8.18;;;;;;;4.30;87.42;101900.49;1801461;79;21175;-53
2020/12/27 11:38:43;;;;;;;13.95;7.40;;;;;;;4.27;87.33;101902.66;1752284;81;21456;-53
2020/12/27 11:41:13;;;;;;;14.68;6.30;;;;;;;4.24;87.05;101894.67;1769749;81;21516;-53
2020/12/27 11:43:42;;;;;;;12.78;6.95;;;;;;;4.22;86.51;101896.88;1769763;81;20972;-53